Time;durP1;ratioP1;P1;durP2;ratioP2;P2;SDS_P1;SDS_P2;PMS_P1;PMS_P2;Temp;Humidity;BMP_temperature;BMP_pressure;BME280_temperature;BME280_humidity;BME280_pressure;Samples;Min_cycle;Max_cycle;Signal;HPM_P1;HPM_P2
2024/01/02 00:01:05;;;;;;;3.55;1.13;;;;;;;7.65;61.64;98941.13;10510785;28;20036;-65
2024/01/02 00:06:07;;;;;;;0.80;0.80;;;;;;;7.65;61.75;98932.50;10494191;28;20118;-66
2024/01/02 00:11:09;;;;;;;1.02;0.75;;;;;;;7.59;62.13;98918.09;10519306;28;20048;-66
2024/01/02 00:16:11;;;;;;;2.63;1.10;;;;;;;7.64;62.06;98916.06;10503347;28;20118;-66
2024/01/02 00:21:14;;;;;;;2.67;1.35;;;;;;;7.65;61.98;98894.28;10521295;28;20511;-66
2024/01/02 00:26:15;;;;;;;3.80;0.98;;;;;;;7.65;62.11;98886.47;10520111;28;20072;-66
2024/01/02 00:31:18;;;;;;;2.88;1.33;;;;;;;7.65;62.31;98870.88;10520302;28;20077;-67
2024/01/02 00:36:20;;;;;;;1.67;1.00;;;;;;;7.66;62.45;98862.16;10520055;28;20277;-66
2024/01/02 00:41:22;;;;;;;2.08;0.88;;;;;;;7.80;62.21;98854.28;10502830;28;20040;-66
2024/01/02 00:46:24;;;;;;;1.15;0.80;;;;;;;7.80;62.21;98845.63;10520249;28;20048;-67
2024/01/02 00:51:26;;;;;;;3.47;0.88;;;;;;;7.76;62.27;98831.97;10502964;28;20466;-66
2024/01/02 00:56:28;;;;;;;1.80;0.90;;;;;;;7.71;62.24;98815.81;10519341;28;20315;-66
2024/01/02 01:01:31;;;;;;;2.50;0.85;;;;;;;7.69;62.17;98806.47;10519189;28;20036;-66
2024/01/02 01:06:32;;;;;;;2.90;1.20;;;;;;;7.62;62.42;98786.97;10495295;28;20196;-67
2024/01/02 01:11:35;;;;;;;2.75;1.63;;;;;;;7.63;62.43;98778.25;10501911;28;20055;-66
2024/01/02 01:16:37;;;;;;;0.70;0.70;;;;;;;7.58;62.59;98762.94;10518525;28;20058;-65
2024/01/02 01:21:38;;;;;;;3.03;0.88;;;;;;;7.58;62.76;98760.34;10516741;28;20039;-65
2024/01/02 01:26:41;;;;;;;0.65;0.65;;;;;;;7.57;62.72;98747.44;10515964;28;20040;-66
2024/01/02 01:31:43;;;;;;;0.93;0.88;;;;;;;7.59;62.92;98741.16;10481299;28;20047;-65
2024/01/02 01:36:45;;;;;;;1.30;0.82;;;;;;;7.66;63.04;98733.78;10515267;28;20056;-65
2024/01/02 01:41:47;;;;;;;1.98;1.02;;;;;;;7.58;62.96;98728.28;10515743;28;20048;-66
2024/01/02 01:46:50;;;;;;;0.85;0.73;;;;;;;7.56;63.29;98714.53;10511952;28;20069;-66
2024/01/02 01:51:54;;;;;;;0.85;0.82;;;;;;;7.57;63.43;98701.41;10495280;28;20044;-65
2024/01/02 01:56:57;;;;;;;0.70;0.70;;;;;;;7.47;63.78;98684.75;10495561;28;20412;-66
2024/01/02 02:02:00;;;;;;;0.95;0.70;;;;;;;7.45;63.72;98671.03;10494539;28;20036;-65
2024/01/02 02:07:03;;;;;;;3.38;1.17;;;;;;;7.48;63.59;98664.78;10513054;28;20399;-65
2024/01/02 02:12:05;;;;;;;2.25;0.80;;;;;;;7.44;63.73;98635.56;10515319;28;20055;-65
2024/01/02 02:17:07;;;;;;;0.50;0.50;;;;;;;7.45;64.01;98626.00;10497601;28;20040;-65
2024/01/02 02:22:11;;;;;;;1.55;1.05;;;;;;;7.35;64.15;98602.34;10531719;27;20048;-65
2024/01/02 02:27:16;;;;;;;1.63;0.70;;;;;;;7.37;64.17;98582.28;10493746;28;20097;-65
2024/01/02 02:32:20;;;;;;;0.47;0.47;;;;;;;7.34;64.27;98574.69;10509373;28;20333;-65
2024/01/02 02:37:22;;;;;;;0.82;0.60;;;;;;;7.27;64.69;98557.81;10511954;28;20063;-66
2024/01/02 02:42:24;;;;;;;0.40;0.40;;;;;;;7.28;64.64;98543.91;10478119;28;20055;-65
2024/01/02 02:47:26;;;;;;;0.45;0.45;;;;;;;7.30;64.59;98531.63;10503206;28;20047;-65
2024/01/02 02:52:28;;;;;;;0.40;0.40;;;;;;;7.37;64.39;98517.25;10483397;28;20043;-66
2024/01/02 02:57:31;;;;;;;1.40;0.60;;;;;;;7.31;64.58;98507.28;10500319;28;20056;-66
2024/01/02 03:02:33;;;;;;;1.00;0.55;;;;;;;7.36;64.58;98488.75;10503379;28;20233;-66
2024/01/02 03:07:35;;;;;;;0.52;0.43;;;;;;;7.20;64.89;98473.41;10503921;28;20625;-65
2024/01/02 03:12:37;;;;;;;0.85;0.50;;;;;;;7.17;65.34;98450.19;10502984;28;20044;-65
2024/01/02 03:17:39;;;;;;;0.30;0.30;;;;;;;7.24;64.42;98433.25;10512669;28;20048;-65
2024/01/02 03:22:41;;;;;;;0.43;0.43;;;;;;;7.26;64.61;98402.75;10512802;28;20044;-65
2024/01/02 03:27:43;;;;;;;0.40;0.40;;;;;;;7.27;64.53;98394.00;10511961;28;20488;-65
2024/01/02 03:32:45;;;;;;;0.60;0.45;;;;;;;7.27;64.44;98374.97;10511393;28;20046;-65
2024/01/02 03:37:47;;;;;;;0.13;0.13;;;;;;;7.34;64.34;98353.66;10512024;28;20052;-65
2024/01/02 03:42:49;;;;;;;0.20;0.20;;;;;;;7.22;65.08;98341.50;10518613;28;20040;-65
2024/01/02 03:47:51;;;;;;;0.20;0.20;;;;;;;7.19;64.90;98347.75;10519025;28;20056;-65
2024/01/02 03:52:53;;;;;;;0.47;0.30;;;;;;;7.23;65.10;98319.75;10503650;28;20054;-65
2024/01/02 03:57:56;;;;;;;0.85;0.60;;;;;;;7.34;64.68;98303.41;10520413;28;20059;-65
2024/01/02 04:02:58;;;;;;;0.30;0.30;;;;;;;7.40;64.69;98298.59;10498886;28;20051;-65
2024/01/02 04:08:00;;;;;;;0.17;0.17;;;;;;;7.47;64.70;98276.38;10520749;28;20059;-65
2024/01/02 04:13:02;;;;;;;0.30;0.30;;;;;;;7.52;64.50;98266.47;10519212;28;20067;-65
2024/01/02 04:18:04;;;;;;;0.20;0.20;;;;;;;7.59;64.44;98240.84;10519189;28;20044;-65
2024/01/02 04:23:07;;;;;;;0.20;0.20;;;;;;;7.54;64.58;98222.97;10520690;28;20567;-65
2024/01/02 04:28:09;;;;;;;0.10;0.10;;;;;;;7.52;64.78;98198.00;10520091;28;20044;-65
2024/01/02 04:33:11;;;;;;;0.20;0.20;;;;;;;7.53;64.86;98187.47;10499042;28;20193;-65
2024/01/02 04:38:13;;;;;;;0.10;0.10;;;;;;;7.49;65.40;98167.84;10518999;28;20060;-65
2024/01/02 04:43:15;;;;;;;0.20;0.20;;;;;;;7.64;65.03;98161.50;10519567;28;20542;-65
2024/01/02 04:48:17;;;;;;;0.20;0.20;;;;;;;7.74;65.11;98141.63;10515852;28;20123;-65
2024/01/02 04:53:19;;;;;;;0.10;0.10;;;;;;;7.81;64.78;98129.00;10518031;28;20040;-66
2024/01/02 04:58:21;;;;;;;0.20;0.20;;;;;;;7.63;65.31;98118.19;10516840;28;20051;-65
2024/01/02 05:03:24;;;;;;;0.15;0.15;;;;;;;7.75;64.94;98104.25;10517442;28;20044;-65
2024/01/02 05:08:26;;;;;;;0.13;0.13;;;;;;;7.78;65.09;98085.81;10519585;28;20101;-66
2024/01/02 05:13:28;;;;;;;0.90;0.40;;;;;;;7.80;65.31;98085.69;10501631;28;20048;-66
2024/01/02 05:18:30;;;;;;;0.35;0.30;;;;;;;7.90;65.04;98078.81;10516347;28;20040;-67
2024/01/02 05:23:33;;;;;;;5.30;1.98;;;;;;;7.95;65.27;98087.94;10517637;28;20122;-65
2024/01/02 05:28:35;;;;;;;1.67;1.02;;;;;;;7.94;65.49;98077.63;10515640;28;20047;-65
2024/01/02 05:33:37;;;;;;;4.82;2.00;;;;;;;7.91;65.77;98055.28;10514697;28;20044;-65
2024/01/02 05:38:39;;;;;;;2.88;1.33;;;;;;;8.03;65.71;98046.53;10515468;28;20062;-66
2024/01/02 05:43:41;;;;;;;0.77;0.55;;;;;;;8.03;65.72;98051.72;10515804;28;20044;-66
2024/01/02 05:48:43;;;;;;;0.38;0.38;;;;;;;8.01;65.96;98053.63;10495971;28;20499;-66
2024/01/02 05:53:45;;;;;;;0.30;0.30;;;;;;;8.01;66.14;98040.59;10514622;28;20044;-66
2024/01/02 05:58:47;;;;;;;0.30;0.30;;;;;;;8.10;66.22;98048.63;10499579;28;20044;-66
2024/01/02 06:03:49;;;;;;;0.32;0.32;;;;;;;8.11;66.49;98037.28;10514221;28;20399;-65
2024/01/02 06:08:51;;;;;;;0.32;0.30;;;;;;;8.09;66.63;98031.34;10513070;28;20054;-65
2024/01/02 06:13:53;;;;;;;0.30;0.28;;;;;;;8.11;67.04;98034.69;10515480;28;20128;-65
2024/01/02 06:18:55;;;;;;;0.35;0.35;;;;;;;8.17;66.81;98049.81;10513989;28;20123;-65
2024/01/02 06:23:58;;;;;;;0.32;0.30;;;;;;;8.21;67.03;98043.41;10513923;28;20129;-65
2024/01/02 06:29:00;;;;;;;0.32;0.32;;;;;;;8.29;66.76;98031.44;10497470;28;20078;-65
2024/01/02 06:34:02;;;;;;;0.40;0.40;;;;;;;8.28;67.13;98024.56;10510180;28;20043;-66
2024/01/02 06:39:04;;;;;;;0.73;0.25;;;;;;;8.28;67.30;98018.56;10504833;28;20125;-65
2024/01/02 06:44:06;;;;;;;1.73;0.40;;;;;;;8.31;67.33;98016.50;10510585;28;20047;-64
2024/01/02 06:49:09;;;;;;;0.30;0.30;;;;;;;8.47;66.78;98008.28;10513648;28;20134;-65
2024/01/02 06:54:11;;;;;;;0.30;0.30;;;;;;;8.44;67.08;98027.59;10511238;28;20081;-65
2024/01/02 06:59:13;;;;;;;0.80;0.38;;;;;;;8.47;67.09;98023.91;10514197;28;20083;-65
2024/01/02 07:04:15;;;;;;;0.15;0.15;;;;;;;8.57;66.92;98032.63;10515126;28;20036;-65
2024/01/02 07:09:17;;;;;;;0.30;0.30;;;;;;;8.60;67.04;98028.00;10496108;28;20551;-65
2024/01/02 07:14:19;;;;;;;0.82;0.50;;;;;;;8.64;67.18;98023.38;10513069;28;20147;-65
2024/01/02 07:19:21;;;;;;;1.00;0.57;;;;;;;8.76;67.03;98030.19;10491150;28;20476;-66
2024/01/02 07:24:23;;;;;;;0.10;0.10;;;;;;;8.79;67.06;98022.13;10521972;28;20771;-65
2024/01/02 07:29:26;;;;;;;0.28;0.28;;;;;;;8.89;67.15;98027.38;10519475;28;20044;-73
2024/01/02 07:34:28;;;;;;;0.20;0.20;;;;;;;8.94;67.30;98040.84;10520346;28;20416;-70
2024/01/02 07:39:30;;;;;;;0.30;0.30;;;;;;;8.95;67.55;98048.56;10485936;28;20408;-68
2024/01/02 07:44:32;;;;;;;0.28;0.20;;;;;;;9.20;66.56;98049.97;10535905;28;20054;-69
2024/01/02 07:49:34;;;;;;;0.60;0.50;;;;;;;9.34;66.36;98049.63;10520503;28;20771;-69
2024/01/02 07:54:38;;;;;;;0.28;0.28;;;;;;;9.39;66.03;98055.28;10503125;28;20568;-69
2024/01/02 07:59:40;;;;;;;0.70;0.38;;;;;;;9.47;65.99;98063.28;10496146;28;20127;-70
2024/01/02 08:04:42;;;;;;;0.28;0.28;;;;;;;9.51;65.80;98062.06;10514855;28;20052;-69
2024/01/02 08:09:44;;;;;;;0.10;0.10;;;;;;;9.70;65.19;98054.34;10487018;28;20188;-70
2024/01/02 08:14:46;;;;;;;0.20;0.20;;;;;;;9.71;65.22;98055.19;10529834;28;20054;-69
2024/01/02 08:19:51;;;;;;;0.30;0.30;;;;;;;9.78;65.13;98064.13;10507785;28;20050;-69
2024/01/02 08:24:53;;;;;;;0.82;0.70;;;;;;;9.80;64.99;98057.81;10516417;28;20040;-69
2024/01/02 08:29:55;;;;;;;2.03;1.30;;;;;;;9.75;64.79;98052.16;10510162;28;20062;-70
2024/01/02 08:34:57;;;;;;;1.85;1.00;;;;;;;9.86;64.70;98053.84;10498376;28;20044;-70
2024/01/02 08:39:59;;;;;;;2.13;1.20;;;;;;;9.89;64.26;98056.22;10496505;28;20055;-68
2024/01/02 08:45:03;;;;;;;0.40;0.40;;;;;;;9.92;64.35;98054.16;10512846;28;20048;-70
2024/01/02 08:50:07;;;;;;;0.25;0.25;;;;;;;10.03;63.83;98063.69;10512503;28;20055;-69
2024/01/02 08:55:10;;;;;;;0.10;0.10;;;;;;;10.02;63.95;98064.63;10512157;28;20048;-68
2024/01/02 09:00:15;;;;;;;0.25;0.25;;;;;;;10.11;63.73;98074.28;10506489;28;20123;-70
2024/01/02 09:05:17;;;;;;;0.10;0.10;;;;;;;10.16;63.72;98069.47;10504119;28;20040;-70
2024/01/02 09:10:19;;;;;;;0.20;0.20;;;;;;;10.09;63.33;98048.31;10509637;28;20052;-70
2024/01/02 09:15:21;;;;;;;0.30;0.30;;;;;;;10.24;63.21;98051.34;10495301;28;20136;-70
2024/01/02 09:20:23;;;;;;;0.32;0.20;;;;;;;10.17;63.13;98055.47;10526864;27;20637;-70
2024/01/02 09:25:26;;;;;;;0.45;0.30;;;;;;;10.34;62.79;98062.63;10491564;28;20555;-70
2024/01/02 09:30:29;;;;;;;0.20;0.20;;;;;;;10.16;63.17;98072.06;10509264;28;20047;-69
2024/01/02 09:35:32;;;;;;;0.65;0.63;;;;;;;10.29;62.93;98064.84;10501675;28;20062;-70
2024/01/02 09:40:49;;;;;;;0.68;0.40;;;;;;;10.16;63.29;98074.69;10506955;28;20425;-70
2024/01/02 09:46:19;;;;;;;0.63;0.40;;;;;;;10.08;64.00;98077.16;10510813;28;20048;-70
2024/01/02 09:51:27;;;;;;;6.93;1.95;;;;;;;10.01;64.53;98086.50;10509461;28;20412;-69
2024/01/02 09:56:43;;;;;;;0.10;0.10;;;;;;;10.32;63.39;98093.28;10511040;28;20043;-68
2024/01/02 10:02:06;;;;;;;0.20;0.20;;;;;;;10.07;63.36;98101.63;10512951;28;20136;-71
2024/01/02 10:07:33;;;;;;;0.40;0.40;;;;;;;10.26;63.06;98097.28;10510678;28;20150;-69
2024/01/02 10:12:55;;;;;;;0.20;0.20;;;;;;;10.30;63.19;98103.03;10509136;28;20048;-68
2024/01/02 10:18:13;;;;;;;0.43;0.43;;;;;;;10.34;63.22;98089.59;10493684;28;20064;-69
2024/01/02 10:23:44;;;;;;;1.27;0.77;;;;;;;10.41;62.76;98085.50;10512050;28;20052;-69
2024/01/02 10:28:49;;;;;;;0.70;0.43;;;;;;;10.43;63.00;98087.97;10509274;28;20131;-69
2024/01/02 10:34:24;;;;;;;0.13;0.13;;;;;;;10.36;63.74;98092.88;10510777;28;20113;-70
2024/01/02 10:39:35;;;;;;;0.20;0.20;;;;;;;10.14;63.91;98082.66;10509003;28;20044;-69
2024/01/02 10:45:06;;;;;;;0.20;0.20;;;;;;;10.11;64.42;98071.66;10509653;28;20352;-69
2024/01/02 10:50:15;;;;;;;0.10;0.10;;;;;;;9.96;64.89;98063.38;10501031;28;20059;-68
2024/01/02 10:55:32;;;;;;;0.10;0.10;;;;;;;10.08;64.69;98064.09;10507486;28;20047;-69
2024/01/02 11:00:52;;;;;;;0.13;0.13;;;;;;;9.95;64.84;98066.94;10509029;28;20056;-68
2024/01/02 11:05:57;;;;;;;0.13;0.13;;;;;;;9.86;64.66;98079.97;10509313;28;20048;-68
2024/01/02 11:11:03;;;;;;;0.20;0.20;;;;;;;9.95;64.36;98069.53;10488333;28;20138;-69
2024/01/02 11:16:16;;;;;;;0.52;0.10;;;;;;;9.92;64.34;98056.78;10510995;28;20403;-69
2024/01/02 11:21:33;;;;;;;0.30;0.30;;;;;;;10.09;63.86;98050.91;10507408;28;20132;-70
2024/01/02 11:26:42;;;;;;;0.25;0.25;;;;;;;10.02;64.05;98046.34;10504197;28;20472;-70
2024/01/02 11:31:48;;;;;;;0.20;0.20;;;;;;;10.06;63.87;98040.72;10508501;28;20047;-69
2024/01/02 11:36:53;;;;;;;0.80;0.22;;;;;;;10.22;63.96;98033.19;10506961;28;20078;-68
2024/01/02 11:42:12;;;;;;;0.20;0.20;;;;;;;10.34;63.73;98033.88;10510061;28;20071;-69
2024/01/02 11:47:32;;;;;;;0.13;0.13;;;;;;;10.26;64.00;98025.91;10490462;28;20097;-70
2024/01/02 11:52:47;;;;;;;0.20;0.20;;;;;;;10.09;64.83;98030.03;10509789;28;20077;-69
2024/01/02 11:57:54;;;;;;;1.80;0.30;;;;;;;10.10;64.84;98013.38;10509018;28;20570;-69
2024/01/02 12:03:00;;;;;;;0.28;0.28;;;;;;;10.15;64.93;98020.81;10514206;28;20988;-68
2024/01/02 12:08:09;;;;;;;0.32;0.32;;;;;;;10.18;65.26;98003.06;10517146;28;20175;-70
2024/01/02 12:13:16;;;;;;;0.32;0.32;;;;;;;10.20;65.11;97990.69;10511345;28;20131;-70
2024/01/02 12:18:21;;;;;;;0.20;0.20;;;;;;;10.19;65.09;97990.84;10496467;28;20139;-70
2024/01/02 12:23:23;;;;;;;0.20;0.20;;;;;;;10.05;65.30;97965.97;10517347;28;20054;-69
2024/01/02 12:28:28;;;;;;;0.22;0.22;;;;;;;10.01;65.35;97961.94;10514664;28;20047;-70
2024/01/02 12:33:34;;;;;;;0.43;0.40;;;;;;;9.95;65.69;97944.19;10490671;28;20040;-71
2024/01/02 12:38:51;;;;;;;0.40;0.40;;;;;;;9.95;65.90;97946.00;10515447;28;20120;-70
2024/01/02 12:43:58;;;;;;;0.50;0.50;;;;;;;9.96;65.22;97938.03;10517076;28;20048;-70
2024/01/02 12:49:09;;;;;;;0.30;0.30;;;;;;;9.85;65.92;97924.28;10496847;28;21016;-71
2024/01/02 12:54:19;;;;;;;0.30;0.30;;;;;;;9.68;66.20;97910.09;10514852;28;20285;-70
2024/01/02 12:59:28;;;;;;;0.70;0.70;;;;;;;9.67;66.26;97916.28;10513015;28;20048;-70
2024/01/02 13:04:30;;;;;;;0.50;0.50;;;;;;;9.74;65.79;97914.78;10510437;28;20138;-70
2024/01/02 13:09:33;;;;;;;0.52;0.52;;;;;;;9.72;65.59;97902.81;10513598;28;20067;-68
2024/01/02 13:14:35;;;;;;;0.38;0.38;;;;;;;9.65;65.70;97900.72;10507356;28;20481;-70
2024/01/02 13:19:38;;;;;;;0.68;0.60;;;;;;;9.68;65.82;97902.28;10505976;28;20380;-70
2024/01/02 13:24:48;;;;;;;0.50;0.50;;;;;;;9.71;65.69;97891.56;10496073;28;20511;-70
2024/01/02 13:29:50;;;;;;;0.80;0.73;;;;;;;9.66;65.89;97893.75;10493888;28;20068;-71
2024/01/02 13:34:56;;;;;;;0.50;0.50;;;;;;;9.67;65.98;97884.16;10491557;28;20063;-71
2024/01/02 13:39:59;;;;;;;0.50;0.50;;;;;;;9.68;65.80;97870.13;10492898;28;20048;-71
2024/01/02 13:45:01;;;;;;;0.80;0.80;;;;;;;9.69;65.78;97859.53;10483307;28;20238;-71
2024/01/02 13:50:07;;;;;;;1.95;0.73;;;;;;;9.60;66.12;97860.34;10477434;28;20419;-71
2024/01/02 13:55:09;;;;;;;1.98;1.10;;;;;;;9.62;66.22;97861.88;10501405;28;20082;-70
2024/01/02 14:00:17;;;;;;;0.52;0.50;;;;;;;9.51;66.38;97859.34;10500514;28;20808;-71
2024/01/02 14:05:24;;;;;;;2.00;0.60;;;;;;;9.55;66.46;97846.84;10492968;28;20048;-71
2024/01/02 14:10:30;;;;;;;0.65;0.55;;;;;;;9.41;66.67;97840.25;10490221;28;20078;-71
2024/01/02 14:15:39;;;;;;;0.60;0.60;;;;;;;9.52;66.60;97840.13;10491854;28;20051;-70
2024/01/02 14:20:50;;;;;;;0.50;0.50;;;;;;;9.53;66.70;97828.75;10508741;28;20059;-71
2024/01/02 14:26:19;;;;;;;0.60;0.60;;;;;;;9.44;66.96;97815.69;10507882;28;20048;-70
2024/01/02 14:31:31;;;;;;;0.40;0.40;;;;;;;9.46;67.03;97808.56;10508843;28;20044;-70
2024/01/02 14:36:46;;;;;;;1.63;0.50;;;;;;;9.37;67.40;97789.31;10505187;28;20454;-71
2024/01/02 14:41:52;;;;;;;1.85;0.77;;;;;;;9.42;66.96;97787.09;10508605;28;20393;-70
2024/01/02 14:47:15;;;;;;;1.00;0.63;;;;;;;9.56;66.82;97783.28;10507418;28;20177;-70
2024/01/02 14:52:49;;;;;;;0.50;0.50;;;;;;;9.47;67.00;97779.72;10504874;28;20117;-71
2024/01/02 14:58:16;;;;;;;1.30;1.10;;;;;;;9.55;66.90;97758.13;10510330;28;20504;-71
2024/01/02 15:03:36;;;;;;;1.90;1.20;;;;;;;9.58;66.99;97750.06;10509588;28;20032;-72
2024/01/02 15:08:56;;;;;;;1.65;0.85;;;;;;;9.58;66.54;97742.22;10506946;28;20048;-70
2024/01/02 15:14:18;;;;;;;1.90;0.90;;;;;;;9.52;67.08;97734.94;10505069;28;20480;-70
2024/01/02 15:19:31;;;;;;;0.45;0.40;;;;;;;9.58;66.86;97721.34;10503638;28;20184;-71
2024/01/02 15:24:39;;;;;;;0.80;0.68;;;;;;;9.60;66.74;97707.22;10510780;28;20091;-69
2024/01/02 15:29:51;;;;;;;1.00;0.50;;;;;;;9.58;66.81;97700.47;10505598;28;20052;-70
2024/01/02 15:35:06;;;;;;;0.90;0.90;;;;;;;9.57;67.06;97681.38;10505504;28;20044;-69
2024/01/02 15:40:09;;;;;;;0.73;0.70;;;;;;;9.68;66.73;97688.25;10515401;28;20098;-69
2024/01/02 15:45:12;;;;;;;0.80;0.80;;;;;;;9.64;66.79;97661.59;10515930;28;20377;-69
2024/01/02 15:50:32;;;;;;;1.05;0.95;;;;;;;9.59;67.05;97665.56;10516800;28;20052;-69
2024/01/02 15:55:37;;;;;;;1.10;1.00;;;;;;;9.48;67.30;97650.09;10515035;28;20584;-69
2024/01/02 16:00:41;;;;;;;2.17;0.95;;;;;;;9.54;67.13;97652.94;10496173;28;20040;-69
2024/01/02 16:06:08;;;;;;;2.97;1.40;;;;;;;9.55;67.23;97646.78;10514655;28;20044;-70
2024/01/02 16:11:35;;;;;;;1.50;0.80;;;;;;;9.53;67.25;97640.88;10475855;28;20135;-70
2024/01/02 16:16:51;;;;;;;2.28;1.33;;;;;;;9.56;67.27;97626.72;10495259;28;20051;-63
2024/01/02 16:22:06;;;;;;;0.35;0.35;;;;;;;9.48;67.16;97609.13;10497617;28;20164;-62
2024/01/02 16:27:18;;;;;;;0.93;0.75;;;;;;;9.59;66.82;97595.94;10529160;27;20937;-62
2024/01/02 16:32:26;;;;;;;0.45;0.45;;;;;;;9.52;67.19;97575.78;10508643;28;20242;-63
2024/01/02 16:38:03;;;;;;;0.40;0.40;;;;;;;9.43;67.13;97559.19;10508024;28;20056;-62
2024/01/02 16:43:06;;;;;;;0.40;0.40;;;;;;;9.53;67.03;97559.97;10456094;28;20866;-63
2024/01/02 16:48:12;;;;;;;0.60;0.60;;;;;;;9.70;66.53;97570.66;10501352;28;20440;-63
2024/01/02 16:53:16;;;;;;;0.43;0.43;;;;;;;9.70;66.51;97561.06;10505666;28;20476;-63
2024/01/02 16:58:22;;;;;;;0.30;0.30;;;;;;;9.68;66.70;97549.94;10506877;28;20036;-63
2024/01/02 17:03:25;;;;;;;0.50;0.50;;;;;;;9.58;66.82;97547.31;10514192;28;20051;-63
2024/01/02 17:08:28;;;;;;;0.30;0.30;;;;;;;9.61;66.66;97533.16;10513305;28;20872;-63
2024/01/02 17:13:34;;;;;;;0.22;0.22;;;;;;;9.52;66.91;97524.41;10490361;28;20032;-63
2024/01/02 17:18:38;;;;;;;0.30;0.30;;;;;;;9.52;67.20;97526.22;10510563;28;20054;-63
2024/01/02 17:23:41;;;;;;;0.88;0.30;;;;;;;9.48;67.18;97503.97;10514262;28;20060;-63
2024/01/02 17:28:51;;;;;;;0.30;0.30;;;;;;;9.43;67.24;97501.78;10509566;28;20135;-63
2024/01/02 17:34:06;;;;;;;0.40;0.20;;;;;;;9.48;67.33;97499.56;10512587;28;20507;-63
2024/01/02 17:39:09;;;;;;;0.38;0.38;;;;;;;9.50;67.23;97497.63;10514162;28;20456;-62
2024/01/02 17:44:21;;;;;;;0.32;0.32;;;;;;;9.41;67.92;97472.44;10511487;28;20078;-63
2024/01/02 17:49:24;;;;;;;0.40;0.40;;;;;;;9.57;67.07;97462.19;10508178;28;20044;-61
2024/01/02 17:54:28;;;;;;;0.43;0.43;;;;;;;9.48;67.29;97470.88;10503854;28;20043;-62
2024/01/02 17:59:41;;;;;;;0.30;0.30;;;;;;;9.50;67.58;97465.53;10488906;28;20129;-61
2024/01/02 18:05:01;;;;;;;1.85;1.15;;;;;;;9.47;67.37;97448.38;10505550;28;20164;-62
2024/01/02 18:10:10;;;;;;;1.17;0.60;;;;;;;9.59;67.13;97438.53;10479063;28;20189;-62
2024/01/02 18:15:17;;;;;;;1.67;0.80;;;;;;;9.52;67.64;97443.53;10473671;28;20559;-62
2024/01/02 18:20:48;;;;;;;3.08;1.27;;;;;;;9.57;67.40;97446.53;10504598;28;20032;-62
2024/01/02 18:26:15;;;;;;;5.43;2.57;;;;;;;9.61;67.25;97439.22;10490341;28;20058;-62
2024/01/02 18:31:46;;;;;;;1.80;1.00;;;;;;;9.67;67.04;97424.81;10472988;28;20550;-62
2024/01/02 18:37:18;;;;;;;0.77;0.60;;;;;;;9.59;67.08;97436.78;10492047;28;20391;-61
2024/01/02 18:42:47;;;;;;;1.25;0.82;;;;;;;9.51;67.34;97423.63;10496915;28;20128;-62
2024/01/02 18:48:20;;;;;;;0.93;0.60;;;;;;;9.59;67.00;97410.66;10495850;28;20130;-62
2024/01/02 18:53:38;;;;;;;0.52;0.52;;;;;;;9.53;67.17;97402.59;10498522;28;20044;-62
2024/01/02 18:58:42;;;;;;;0.60;0.60;;;;;;;9.67;66.92;97396.91;10501219;28;20039;-62
2024/01/02 19:03:49;;;;;;;0.63;0.63;;;;;;;9.73;66.82;97398.13;10496373;28;20051;-62
2024/01/02 19:08:52;;;;;;;0.40;0.40;;;;;;;9.70;66.74;97399.25;10489381;28;20055;-62
2024/01/02 19:13:56;;;;;;;0.20;0.20;;;;;;;9.76;66.58;97392.59;10500570;28;20059;-62
2024/01/02 19:18:59;;;;;;;0.32;0.20;;;;;;;9.75;66.40;97406.63;10501783;28;20056;-62
2024/01/02 19:24:04;;;;;;;0.40;0.32;;;;;;;9.84;66.15;97397.91;10474896;28;20166;-62
2024/01/02 19:29:06;;;;;;;1.58;0.65;;;;;;;9.84;66.44;97400.50;10488527;28;20048;-61
2024/01/02 19:34:08;;;;;;;4.28;1.55;;;;;;;9.77;66.40;97405.50;10508173;28;20063;-61
2024/01/02 19:39:11;;;;;;;2.35;0.70;;;;;;;9.90;66.37;97395.53;10504909;28;20051;-61
2024/01/02 19:44:13;;;;;;;0.65;0.40;;;;;;;10.01;66.17;97415.38;10508556;28;20098;-61
2024/01/02 19:49:15;;;;;;;1.83;0.90;;;;;;;10.05;66.02;97424.56;10506656;28;20590;-62
2024/01/02 19:54:17;;;;;;;0.45;0.43;;;;;;;10.08;65.60;97425.06;10508369;28;20129;-62
2024/01/02 19:59:21;;;;;;;0.45;0.20;;;;;;;10.17;65.63;97410.31;10510942;28;20054;-61
2024/01/02 20:04:34;;;;;;;0.50;0.50;;;;;;;10.18;65.28;97404.91;10511983;28;20055;-61
2024/01/02 20:09:40;;;;;;;0.20;0.20;;;;;;;10.30;65.27;97408.13;10510556;28;20048;-61
2024/01/02 20:14:49;;;;;;;0.10;0.10;;;;;;;10.20;65.25;97425.66;10513358;28;20646;-61
2024/01/02 20:19:53;;;;;;;0.20;0.20;;;;;;;10.17;65.29;97429.41;10511475;28;20047;-61
2024/01/02 20:24:56;;;;;;;0.10;0.10;;;;;;;10.35;65.12;97440.66;10493867;28;20048;-62
2024/01/02 20:30:01;;;;;;;0.30;0.30;;;;;;;10.36;65.06;97446.69;10518823;28;20143;-62
2024/01/02 20:35:05;;;;;;;0.10;0.10;;;;;;;10.31;65.45;97452.41;10518769;28;20039;-62
2024/01/02 20:40:10;;;;;;;0.30;0.30;;;;;;;10.42;65.04;97464.38;10515632;28;20044;-61
2024/01/02 20:45:14;;;;;;;1.25;0.80;;;;;;;10.38;65.01;97476.09;10518101;28;20040;-62
2024/01/02 20:50:25;;;;;;;1.45;0.85;;;;;;;10.31;64.71;97469.84;10516973;28;20048;-62
2024/01/02 20:55:39;;;;;;;0.50;0.43;;;;;;;10.52;64.66;97479.00;10516461;28;20093;-62
2024/01/02 21:00:41;;;;;;;0.73;0.57;;;;;;;10.50;64.94;97473.13;10517870;28;20040;-62
2024/01/02 21:05:46;;;;;;;0.63;0.60;;;;;;;10.52;64.73;97465.94;10515289;28;20052;-62
2024/01/02 21:10:54;;;;;;;0.52;0.47;;;;;;;10.49;64.63;97466.25;10515035;28;20044;-62
2024/01/02 21:16:00;;;;;;;0.30;0.30;;;;;;;10.50;64.74;97477.53;10529298;28;20479;-62
2024/01/02 21:21:02;;;;;;;0.40;0.40;;;;;;;10.42;64.81;97474.84;10513391;28;20385;-62
2024/01/02 21:26:04;;;;;;;0.30;0.30;;;;;;;10.42;64.59;97472.22;10513520;28;20046;-62
2024/01/02 21:31:06;;;;;;;0.35;0.30;;;;;;;10.50;64.25;97482.78;10514552;28;20150;-62
2024/01/02 21:36:09;;;;;;;0.10;0.10;;;;;;;10.57;64.06;97480.34;10514591;28;20135;-62
2024/01/02 21:41:18;;;;;;;0.98;0.60;;;;;;;10.58;64.04;97487.25;10515261;28;20050;-62
2024/01/02 21:46:25;;;;;;;0.43;0.30;;;;;;;10.49;63.98;97481.94;10515113;28;20536;-62
2024/01/02 21:51:29;;;;;;;0.35;0.35;;;;;;;10.51;63.98;97505.31;10515286;28;20052;-61
2024/01/02 21:56:36;;;;;;;0.93;0.40;;;;;;;10.47;64.77;97503.97;10513495;28;20051;-62
2024/01/02 22:01:38;;;;;;;0.60;0.50;;;;;;;10.33;65.09;97522.78;10514707;28;20048;-61
2024/01/02 22:06:41;;;;;;;0.25;0.25;;;;;;;10.22;65.12;97520.34;10495152;28;20055;-61
2024/01/02 22:11:54;;;;;;;0.50;0.47;;;;;;;10.21;64.46;97523.97;10514546;28;20068;-61
2024/01/02 22:17:00;;;;;;;0.50;0.50;;;;;;;10.16;64.29;97510.50;10492372;28;20044;-62
2024/01/02 22:22:06;;;;;;;0.60;0.57;;;;;;;10.02;64.38;97506.63;10483745;28;20101;-62
2024/01/02 22:27:08;;;;;;;1.38;0.70;;;;;;;10.16;63.90;97505.28;10513000;28;20070;-61
2024/01/02 22:32:10;;;;;;;1.17;0.60;;;;;;;10.24;63.76;97515.81;10512134;28;20168;-62
2024/01/02 22:37:20;;;;;;;0.77;0.50;;;;;;;10.34;63.25;97519.19;10527724;27;20080;-62
2024/01/02 22:42:24;;;;;;;1.35;0.63;;;;;;;10.17;63.24;97533.06;10512464;28;20123;-61
2024/01/02 22:47:26;;;;;;;0.77;0.45;;;;;;;10.12;63.03;97548.34;10511786;28;20044;-62
2024/01/02 22:52:28;;;;;;;1.00;0.80;;;;;;;10.15;63.38;97545.44;10512201;28;20048;-61
2024/01/02 22:57:30;;;;;;;1.05;0.43;;;;;;;10.06;63.16;97543.69;10513487;28;20044;-61
2024/01/02 23:02:32;;;;;;;0.98;0.50;;;;;;;10.12;63.11;97553.56;10512800;28;20468;-61
2024/01/02 23:07:36;;;;;;;3.35;0.68;;;;;;;10.03;63.23;97563.13;10513461;28;20059;-61
2024/01/02 23:12:40;;;;;;;1.92;0.57;;;;;;;10.00;63.06;97563.38;10513426;28;20121;-61
2024/01/02 23:17:47;;;;;;;1.95;0.50;;;;;;;9.96;63.25;97558.59;10513554;28;20657;-61
2024/01/02 23:22:49;;;;;;;0.75;0.57;;;;;;;9.92;63.35;97558.06;10509765;28;20134;-62
2024/01/02 23:27:51;;;;;;;0.98;0.38;;;;;;;9.80;63.11;97571.44;10508573;28;20127;-62
2024/01/02 23:32:53;;;;;;;0.30;0.30;;;;;;;9.83;62.96;97566.75;10512619;28;20048;-62
2024/01/02 23:37:57;;;;;;;0.47;0.40;;;;;;;9.83;62.96;97574.59;10512153;28;20075;-61
2024/01/02 23:42:59;;;;;;;0.50;0.50;;;;;;;9.76;62.66;97581.38;10511401;28;20052;-62
2024/01/02 23:48:02;;;;;;;1.50;0.75;;;;;;;9.94;62.25;97569.19;10511710;28;20040;-61
2024/01/02 23:53:06;;;;;;;0.55;0.55;;;;;;;9.97;61.91;97589.78;10510272;28;20077;-62
2024/01/02 23:58:09;;;;;;;0.22;0.22;;;;;;;9.98;61.77;97612.31;10514942;28;20071;-62
